createdAt,value
2022-12-06T00:01:45.732Z,23.85
2022-12-06T00:04:16.687Z,27.52
2022-12-06T00:06:47.793Z,31.80
2022-12-06T00:09:23.410Z,38.58
2022-12-06T00:11:51.930Z,39.38
2022-12-06T00:14:21.151Z,36.73
2022-12-06T00:16:49.124Z,33.15
2022-12-06T00:19:19.761Z,32.53
2022-12-06T00:21:47.967Z,36.65
2022-12-06T00:24:19.692Z,37.05
2022-12-06T00:26:49.489Z,34.60
2022-12-06T00:29:23.708Z,32.48
2022-12-06T00:31:51.642Z,25.68
2022-12-06T00:34:19.604Z,23.55
2022-12-06T00:36:48.854Z,22.37
2022-12-06T00:39:17.903Z,22.02
2022-12-06T00:41:45.752Z,19.15
2022-12-06T00:44:13.623Z,17.60
2022-12-06T00:46:41.691Z,17.07
2022-12-06T00:49:11.482Z,15.90
2022-12-06T00:51:39.865Z,18.32
2022-12-06T00:54:10.304Z,18.70
2022-12-06T00:56:38.163Z,17.82
2022-12-06T00:59:06.405Z,17.02
2022-12-06T01:01:35.660Z,18.07
2022-12-06T01:04:06.856Z,19.73
2022-12-06T01:06:36.791Z,21.00
2022-12-06T01:09:10.150Z,21.20
2022-12-06T01:11:38.187Z,22.22
2022-12-06T01:14:06.123Z,21.50
2022-12-06T01:16:34.631Z,23.77
2022-12-06T01:19:05.647Z,22.58
2022-12-06T01:21:33.699Z,24.77
2022-12-06T01:24:01.468Z,21.10
2022-12-06T01:26:33.299Z,20.23
2022-12-06T01:29:02.128Z,19.23
2022-12-06T01:31:37.155Z,18.82
2022-12-06T01:34:00.927Z,19.85
2022-12-06T01:36:28.745Z,19.00
2022-12-06T01:39:00.000Z,19.15
2022-12-06T01:41:28.370Z,18.67
2022-12-06T01:43:56.931Z,19.52
2022-12-06T01:46:45.209Z,19.60
2022-12-06T01:49:23.532Z,19.70
2022-12-06T01:51:56.512Z,18.82
2022-12-06T01:54:25.664Z,21.27
2022-12-06T01:56:55.768Z,20.55
2022-12-06T01:59:25.537Z,21.65
2022-12-06T02:01:55.013Z,17.90
2022-12-06T02:04:24.299Z,21.82
2022-12-06T02:06:54.542Z,21.17
2022-12-06T02:09:23.153Z,20.43
2022-12-06T02:11:51.039Z,22.20
2022-12-06T02:14:23.447Z,22.48
2022-12-06T02:17:08.711Z,22.73
2022-12-06T02:20:00.261Z,23.50
2022-12-06T02:23:00.710Z,23.52
2022-12-06T02:26:25.601Z,23.87
2022-12-06T02:29:35.317Z,19.62
2022-12-06T02:32:20.393Z,24.50
2022-12-06T02:34:53.555Z,27.13
2022-12-06T02:37:32.957Z,24.35
2022-12-06T02:40:17.661Z,23.15
2022-12-06T02:43:02.001Z,25.37
2022-12-06T02:45:38.367Z,22.32
2022-12-06T02:48:09.437Z,22.15
2022-12-06T02:50:42.451Z,22.42
2022-12-06T02:53:14.819Z,19.48
2022-12-06T02:55:44.927Z,17.17
2022-12-06T02:58:12.725Z,17.40
2022-12-06T03:00:44.658Z,18.52
2022-12-06T03:03:42.484Z,16.12
2022-12-06T03:06:33.527Z,19.55
2022-12-06T03:09:21.390Z,18.65
2022-12-06T03:11:57.507Z,16.12
2022-12-06T03:14:28.853Z,21.33
2022-12-06T03:17:22.815Z,16.67
2022-12-06T03:19:56.544Z,15.88
2022-12-06T03:22:39.600Z,16.07
2022-12-06T03:25:08.352Z,18.52
2022-12-06T03:27:36.663Z,16.45
2022-12-06T03:30:09.435Z,17.70
2022-12-06T03:32:40.971Z,18.25
2022-12-06T03:35:12.338Z,16.87
2022-12-06T03:37:43.771Z,17.30
2022-12-06T03:40:30.449Z,17.57
2022-12-06T03:42:59.706Z,18.12
2022-12-06T03:45:48.391Z,22.25
2022-12-06T03:48:24.485Z,22.50
2022-12-06T03:51:03.547Z,22.42
2022-12-06T03:53:32.150Z,22.77
2022-12-06T03:56:00.308Z,21.90
2022-12-06T03:58:27.787Z,18.50
2022-12-06T04:00:55.621Z,20.72
2022-12-06T04:03:23.535Z,20.23
2022-12-06T04:05:51.198Z,20.45
2022-12-06T04:08:19.007Z,22.15
2022-12-06T04:10:46.997Z,19.35
2022-12-06T04:13:19.465Z,19.77
2022-12-06T04:15:45.163Z,21.20
2022-12-06T04:18:14.621Z,18.35
2022-12-06T04:21:12.416Z,19.35
2022-12-06T04:23:43.750Z,19.87
2022-12-06T04:26:16.163Z,20.52
2022-12-06T04:29:02.646Z,18.17
2022-12-06T04:31:48.676Z,23.40
2022-12-06T04:34:35.610Z,23.20
2022-12-06T04:37:22.097Z,21.15
2022-12-06T04:39:50.258Z,23.30
2022-12-06T04:42:36.755Z,22.65
2022-12-06T04:45:06.581Z,22.95
2022-12-06T04:47:34.566Z,22.52
2022-12-06T04:50:02.813Z,30.10
2022-12-06T04:52:35.445Z,38.10
2022-12-06T04:55:00.373Z,34.20
2022-12-06T04:57:28.478Z,42.43
2022-12-06T04:59:56.508Z,44.83
2022-12-06T05:02:24.718Z,37.63
2022-12-06T05:04:52.756Z,30.80
2022-12-06T05:07:21.248Z,32.90
2022-12-06T05:09:49.311Z,31.85
2022-12-06T05:12:22.122Z,27.37
2022-12-06T05:15:02.107Z,39.85
2022-12-06T05:17:38.950Z,38.45
2022-12-06T05:20:14.971Z,33.23
2022-12-06T05:22:45.859Z,32.30
2022-12-06T05:25:16.557Z,32.85
2022-12-06T05:27:46.746Z,32.15
2022-12-06T05:30:23.639Z,34.08
2022-12-06T05:32:56.851Z,34.67
2022-12-06T05:35:27.694Z,35.00
2022-12-06T05:37:55.764Z,28.55
2022-12-06T05:40:23.597Z,28.85
2022-12-06T05:42:51.301Z,30.82
2022-12-06T05:45:19.683Z,35.85
2022-12-06T05:47:47.755Z,36.45
2022-12-06T05:50:16.164Z,24.67
2022-12-06T05:52:44.623Z,29.15
2022-12-06T05:55:12.533Z,27.87
2022-12-06T05:57:45.624Z,32.50
2022-12-06T06:00:11.460Z,36.15
2022-12-06T06:02:42.854Z,36.70
2022-12-06T06:05:12.205Z,29.85
2022-12-06T06:07:43.952Z,28.92
2022-12-06T06:10:15.920Z,29.12
2022-12-06T06:12:46.715Z,30.52
2022-12-06T06:15:19.121Z,29.40
2022-12-06T06:17:47.625Z,34.30
2022-12-06T06:20:15.279Z,28.60
2022-12-06T06:22:48.110Z,29.42
2022-12-06T06:25:19.977Z,29.20
2022-12-06T06:27:47.944Z,30.43
2022-12-06T06:30:16.012Z,22.62
2022-12-06T06:32:44.000Z,22.17
2022-12-06T06:35:11.993Z,21.80
2022-12-06T06:37:40.922Z,22.10
2022-12-06T06:40:10.879Z,20.65
2022-12-06T06:42:39.040Z,20.77
2022-12-06T06:45:07.725Z,38.00
2022-12-06T06:47:35.497Z,29.05
2022-12-06T06:50:03.979Z,27.50
2022-12-06T06:52:32.352Z,28.35
2022-12-06T06:55:00.140Z,31.70
2022-12-06T06:57:28.173Z,28.12
2022-12-06T06:59:56.019Z,25.32
2022-12-06T07:02:23.868Z,30.60
2022-12-06T07:04:51.823Z,29.15
2022-12-06T07:07:21.396Z,29.18
2022-12-06T07:09:49.526Z,31.15
2022-12-06T07:12:18.060Z,38.28
2022-12-06T07:14:45.793Z,42.27
2022-12-06T07:17:13.647Z,36.75
2022-12-06T07:19:41.292Z,37.38
2022-12-06T07:22:10.311Z,37.13
2022-12-06T07:24:42.148Z,40.67
2022-12-06T07:27:07.727Z,38.80
2022-12-06T07:29:35.720Z,41.63
2022-12-06T07:32:03.446Z,46.13
2022-12-06T07:34:31.103Z,75.55
2022-12-06T07:36:58.930Z,65.37
2022-12-06T07:39:26.624Z,48.05
2022-12-06T07:42:13.055Z,42.50
2022-12-06T07:45:02.311Z,35.52
2022-12-06T07:47:36.926Z,28.07
2022-12-06T07:50:08.113Z,27.62
2022-12-06T07:52:37.212Z,25.25
2022-12-06T07:55:06.694Z,29.67
2022-12-06T07:57:40.023Z,32.60
2022-12-06T08:00:07.234Z,39.15
2022-12-06T08:02:36.772Z,33.40
2022-12-06T08:05:05.160Z,29.65
2022-12-06T08:07:33.377Z,27.05
2022-12-06T08:10:01.379Z,27.05
2022-12-06T08:12:32.995Z,26.25
2022-12-06T08:15:00.629Z,22.20
2022-12-06T08:17:30.090Z,20.43
2022-12-06T08:19:58.218Z,24.72
2022-12-06T08:22:27.851Z,31.35
2022-12-06T08:24:55.760Z,29.92
2022-12-06T08:27:23.680Z,34.20
2022-12-06T08:29:51.494Z,40.33
2022-12-06T08:32:19.387Z,44.50
2022-12-06T08:34:47.065Z,47.13
2022-12-06T08:37:14.928Z,54.13
2022-12-06T08:39:42.708Z,47.50
2022-12-06T08:42:10.419Z,52.85
2022-12-06T08:44:38.058Z,49.70
2022-12-06T08:47:05.696Z,42.15
2022-12-06T08:49:33.657Z,34.75
2022-12-06T08:52:01.638Z,35.17
2022-12-06T08:54:29.640Z,37.58
2022-12-06T08:56:57.404Z,32.20
2022-12-06T08:59:25.343Z,29.77
2022-12-06T09:01:53.101Z,27.02
2022-12-06T09:04:20.611Z,22.17
2022-12-06T09:06:48.339Z,18.92
2022-12-06T09:09:17.919Z,21.93
2022-12-06T09:11:48.734Z,20.10
2022-12-06T09:14:21.876Z,17.87
2022-12-06T09:16:48.118Z,18.12
2022-12-06T09:19:15.947Z,17.82
2022-12-06T09:21:45.819Z,20.27
2022-12-06T09:24:17.247Z,26.15
2022-12-06T09:26:47.274Z,18.70
2022-12-06T09:29:15.996Z,19.92
2022-12-06T09:31:45.990Z,13.78
2022-12-06T09:34:14.473Z,17.10
2022-12-06T09:36:49.533Z,22.48
2022-12-06T09:39:25.760Z,29.55
2022-12-06T09:42:04.932Z,22.20
2022-12-06T09:45:02.260Z,21.93
2022-12-06T09:47:57.682Z,23.00
2022-12-06T09:51:13.929Z,20.72
2022-12-06T09:54:17.202Z,14.58
2022-12-06T09:56:52.457Z,15.68
2022-12-06T09:59:28.506Z,19.30
2022-12-06T10:02:24.425Z,17.98
2022-12-06T10:07:57.836Z,18.62
2022-12-06T10:11:02.723Z,19.70
2022-12-06T10:14:03.517Z,20.10
2022-12-06T10:16:57.617Z,20.50
2022-12-06T10:19:36.575Z,17.42
2022-12-06T10:22:18.380Z,28.27
2022-12-06T10:25:15.919Z,25.48
2022-12-06T10:28:07.376Z,20.17
2022-12-06T10:30:51.373Z,15.78
2022-12-06T10:33:39.916Z,25.30
2022-12-06T10:36:10.151Z,21.77
2022-12-06T10:38:46.375Z,26.23
2022-12-06T10:41:38.121Z,16.95
2022-12-06T10:44:23.585Z,19.00
2022-12-06T10:47:12.482Z,13.53
2022-12-06T10:50:08.206Z,21.93
2022-12-06T10:52:50.384Z,25.52
2022-12-06T10:55:38.132Z,31.52
2022-12-06T10:58:29.227Z,31.27
2022-12-06T11:01:05.331Z,24.57
2022-12-06T11:03:43.752Z,28.57
2022-12-06T11:06:29.270Z,33.08
2022-12-06T11:09:02.340Z,62.40
2022-12-06T11:11:34.332Z,38.92
2022-12-06T11:14:10.324Z,26.70
2022-12-06T11:16:44.682Z,24.00
2022-12-06T11:19:35.842Z,36.15
2022-12-06T11:22:24.318Z,51.13
2022-12-06T11:25:27.117Z,31.77
2022-12-06T11:28:09.166Z,29.27
2022-12-06T11:30:37.529Z,35.08
2022-12-06T11:33:06.186Z,37.23
2022-12-06T11:35:36.863Z,35.00
2022-12-06T11:38:07.530Z,32.90
2022-12-06T11:40:45.663Z,41.20
2022-12-06T11:43:18.188Z,37.83
2022-12-06T11:45:47.250Z,35.55
2022-12-06T11:48:22.493Z,35.88
2022-12-06T11:50:53.483Z,36.23
2022-12-06T11:53:40.863Z,34.98
2022-12-06T11:56:24.056Z,29.40
2022-12-06T11:59:09.193Z,38.65
2022-12-06T12:01:49.963Z,41.88
2022-12-06T12:04:37.779Z,36.45
2022-12-06T12:07:16.745Z,29.05
2022-12-06T12:09:58.603Z,29.87
2022-12-06T12:13:04.942Z,39.55
2022-12-06T12:15:33.478Z,48.42
2022-12-06T12:18:04.043Z,27.60
2022-12-06T12:20:38.572Z,34.40
2022-12-06T12:23:19.628Z,39.07
2022-12-06T12:26:18.893Z,143.93
2022-12-06T12:29:20.029Z,39.08
2022-12-06T12:31:58.424Z,37.85
2022-12-06T12:34:30.957Z,41.18
2022-12-06T12:37:03.072Z,43.52
2022-12-06T12:39:53.253Z,40.23
2022-12-06T12:42:32.406Z,45.88
2022-12-06T12:45:04.296Z,53.95
2022-12-06T12:47:34.683Z,43.65
2022-12-06T12:50:18.361Z,31.97
2022-12-06T12:52:46.630Z,20.62
2022-12-06T12:55:23.197Z,41.20
2022-12-06T12:57:58.686Z,21.40
2022-12-06T13:03:49.512Z,28.98
2022-12-06T13:05:50.630Z,26.93
2022-12-06T13:08:25.505Z,29.40
2022-12-06T13:10:59.250Z,24.47
2022-12-06T13:13:32.808Z,26.23
2022-12-06T13:16:07.284Z,31.48
2022-12-06T13:18:51.437Z,31.25
2022-12-06T13:21:36.075Z,55.65
2022-12-06T13:24:26.809Z,45.70
2022-12-06T13:27:05.260Z,53.28
2022-12-06T13:29:50.904Z,35.60
2022-12-06T13:32:45.286Z,46.40
2022-12-06T13:35:24.554Z,48.42
2022-12-06T13:37:57.931Z,53.38
2022-12-06T13:40:51.611Z,50.60
2022-12-06T13:43:33.922Z,42.83
2022-12-06T13:46:23.693Z,37.48
2022-12-06T13:49:04.771Z,56.42
2022-12-06T13:51:40.627Z,66.22
2022-12-06T13:54:20.136Z,132.47
2022-12-06T13:56:48.167Z,74.03
2022-12-06T13:59:21.550Z,62.73
2022-12-06T14:01:55.249Z,54.53
2022-12-06T14:09:46.685Z,46.40
2022-12-06T14:12:25.616Z,52.17
2022-12-06T14:14:59.536Z,55.95
2022-12-06T14:18:00.790Z,55.40
2022-12-06T14:20:27.445Z,91.37
2022-12-06T14:22:56.106Z,205.27
2022-12-06T14:25:28.125Z,158.37
2022-12-06T14:28:06.592Z,182.17
2022-12-06T14:30:34.633Z,168.72
2022-12-06T14:33:02.623Z,147.05
2022-12-06T14:35:35.495Z,101.85
2022-12-06T14:38:25.586Z,59.93
2022-12-06T14:41:12.584Z,63.50
2022-12-06T14:43:44.193Z,61.80
2022-12-06T14:46:15.782Z,65.42
2022-12-06T14:49:03.738Z,60.05
2022-12-06T14:51:39.861Z,60.55
2022-12-06T14:54:19.882Z,84.75
2022-12-06T14:56:48.081Z,97.17
2022-12-06T14:59:39.019Z,87.47
2022-12-06T15:01:56.370Z,96.55
2022-12-06T15:04:39.720Z,110.65
2022-12-06T15:07:14.480Z,86.53
2022-12-06T15:09:45.501Z,87.15
2022-12-06T15:12:43.377Z,107.45
2022-12-06T15:15:36.477Z,95.05
2022-12-06T15:18:24.269Z,91.82
2022-12-06T15:20:53.622Z,101.12
2022-12-06T15:23:39.272Z,102.32
2022-12-06T15:26:11.046Z,102.05
2022-12-06T15:28:39.700Z,99.60
2022-12-06T15:31:29.283Z,90.05
2022-12-06T15:33:57.321Z,108.80
2022-12-06T15:36:30.503Z,129.00
2022-12-06T15:38:58.227Z,129.75
2022-12-06T15:41:28.173Z,123.65
2022-12-06T15:43:58.755Z,113.50
2022-12-06T15:46:29.273Z,117.22
2022-12-06T15:48:57.589Z,110.72
2022-12-06T15:51:27.546Z,108.17
2022-12-06T15:53:58.932Z,114.17
2022-12-06T15:56:30.665Z,113.77
2022-12-06T15:58:58.921Z,107.05
2022-12-06T16:01:34.406Z,121.92
2022-12-06T16:06:30.298Z,118.05
2022-12-06T16:08:58.093Z,185.80
2022-12-06T16:11:27.219Z,179.70
2022-12-06T16:14:03.333Z,206.60
2022-12-06T16:16:32.274Z,175.35
2022-12-06T16:19:01.522Z,168.10
2022-12-06T16:21:34.426Z,186.62
2022-12-06T16:24:13.446Z,253.40
2022-12-06T16:26:44.067Z,263.80
2022-12-06T16:29:18.384Z,269.77
2022-12-06T16:31:47.603Z,263.00
2022-12-06T16:34:15.990Z,246.85
2022-12-06T16:37:06.215Z,203.60
2022-12-06T16:39:36.015Z,188.27
2022-12-06T16:42:04.667Z,184.35
2022-12-06T16:44:32.698Z,172.68
2022-12-06T16:47:00.641Z,162.95
2022-12-06T16:49:45.661Z,166.85
2022-12-06T16:52:00.147Z,175.05
2022-12-06T16:54:28.330Z,195.72
2022-12-06T16:56:56.419Z,229.13
2022-12-06T16:59:24.726Z,238.25
2022-12-06T17:01:54.912Z,236.18
2022-12-06T17:04:23.419Z,231.82
2022-12-06T17:06:51.627Z,218.00
2022-12-06T17:09:19.378Z,199.05
2022-12-06T17:12:02.895Z,222.63
2022-12-06T17:14:30.975Z,227.82
2022-12-06T17:17:00.985Z,209.98
2022-12-06T17:19:30.684Z,180.32
2022-12-06T17:22:01.670Z,153.40
2022-12-06T17:24:29.962Z,148.80
2022-12-06T17:27:00.406Z,124.00
2022-12-06T17:29:28.578Z,128.68
2022-12-06T17:31:58.665Z,127.60
2022-12-06T17:34:26.620Z,129.45
2022-12-06T17:36:56.457Z,120.60
2022-12-06T17:39:25.355Z,132.87
2022-12-06T17:42:12.502Z,134.00
2022-12-06T17:44:40.670Z,117.55
2022-12-06T17:47:08.814Z,121.47
2022-12-06T17:49:37.816Z,125.82
2022-12-06T17:52:06.054Z,128.38
2022-12-06T17:54:34.393Z,125.42
2022-12-06T17:57:02.529Z,125.60
2022-12-06T17:59:32.591Z,99.28
2022-12-06T18:02:19.482Z,93.37
2022-12-06T18:04:33.745Z,91.32
2022-12-06T18:07:01.778Z,94.35
2022-12-06T18:09:29.794Z,90.07
2022-12-06T18:12:00.731Z,84.30
2022-12-06T18:14:28.806Z,91.63
2022-12-06T18:16:56.973Z,91.55
2022-12-06T18:19:24.906Z,101.58
2022-12-06T18:21:53.099Z,102.62
2022-12-06T18:24:23.856Z,106.75
2022-12-06T18:26:51.419Z,102.58
2022-12-06T18:29:22.774Z,104.35
2022-12-06T18:31:51.497Z,97.45
2022-12-06T18:34:21.344Z,100.38
2022-12-06T18:36:49.333Z,108.25
2022-12-06T18:39:22.096Z,108.57
2022-12-06T18:41:51.578Z,107.75
2022-12-06T18:44:19.477Z,104.65
2022-12-06T18:46:50.020Z,103.12
2022-12-06T18:49:19.883Z,93.15
2022-12-06T18:51:48.228Z,98.55
2022-12-06T18:54:16.841Z,105.85
2022-12-06T18:56:47.067Z,99.15
2022-12-06T18:59:15.306Z,99.32
2022-12-06T19:01:44.804Z,90.42
2022-12-06T19:04:14.290Z,84.25
2022-12-06T19:06:44.143Z,95.30
2022-12-06T19:09:15.587Z,98.35
2022-12-06T19:11:45.976Z,96.12
2022-12-06T19:14:15.576Z,106.43
2022-12-06T19:16:47.098Z,111.92
2022-12-06T19:19:19.739Z,115.88
2022-12-06T19:21:50.010Z,122.10
2022-12-06T19:24:22.808Z,119.72
2022-12-06T19:26:52.762Z,125.58
2022-12-06T19:29:21.713Z,122.75
2022-12-06T19:31:50.504Z,130.30
2022-12-06T19:34:25.525Z,132.50
2022-12-06T19:36:55.024Z,153.45
2022-12-06T19:39:24.668Z,133.90
2022-12-06T19:42:11.449Z,122.82
2022-12-06T19:44:40.973Z,123.15
2022-12-06T19:47:08.907Z,115.85
2022-12-06T19:49:36.968Z,100.87
2022-12-06T19:52:05.455Z,112.12
2022-12-06T19:54:35.490Z,93.25
2022-12-06T19:57:07.630Z,90.53
2022-12-06T19:59:36.686Z,98.00
2022-12-06T20:02:05.368Z,102.58
2022-12-06T20:04:36.855Z,104.15
2022-12-06T20:07:06.748Z,91.97
2022-12-06T20:09:46.982Z,84.75
2022-12-06T20:12:15.191Z,84.80
2022-12-06T20:14:48.559Z,90.67
2022-12-06T20:17:21.428Z,92.80
2022-12-06T20:19:49.575Z,87.42
2022-12-06T20:22:21.725Z,78.02
2022-12-06T20:24:50.001Z,72.08
2022-12-06T20:27:20.888Z,70.90
2022-12-06T20:29:49.003Z,64.82
2022-12-06T20:32:17.196Z,74.30
2022-12-06T20:34:44.892Z,54.77
2022-12-06T20:37:12.583Z,53.42
2022-12-06T20:39:40.538Z,59.80
2022-12-06T20:42:08.430Z,60.45
2022-12-06T20:44:36.313Z,60.05
2022-12-06T20:47:04.147Z,73.35
2022-12-06T20:49:31.901Z,67.67
2022-12-06T20:52:01.543Z,70.78
2022-12-06T20:54:30.040Z,70.35
2022-12-06T20:56:59.381Z,63.10
2022-12-06T20:59:28.734Z,61.90
2022-12-06T21:01:58.762Z,64.22
2022-12-06T21:04:31.344Z,63.60
2022-12-06T21:06:59.030Z,64.45
2022-12-06T21:09:27.030Z,67.92
2022-12-06T21:11:55.333Z,65.40
2022-12-06T21:14:23.626Z,61.08
2022-12-06T21:16:52.001Z,60.55
2022-12-06T21:19:20.283Z,63.55
2022-12-06T21:21:53.083Z,70.80
2022-12-06T21:24:22.142Z,74.10
2022-12-06T21:26:50.044Z,73.25
2022-12-06T21:29:30.407Z,66.55
2022-12-06T21:31:54.252Z,70.03
2022-12-06T21:34:21.841Z,69.90
2022-12-06T21:36:49.595Z,67.42
2022-12-06T21:39:19.173Z,69.47
2022-12-06T21:41:46.612Z,81.08
2022-12-06T21:44:13.999Z,80.07
2022-12-06T21:46:41.878Z,85.03
2022-12-06T21:49:10.383Z,92.72
2022-12-06T21:51:38.166Z,86.53
2022-12-06T21:54:05.989Z,85.28
2022-12-06T21:56:34.594Z,82.50
2022-12-06T21:59:03.351Z,91.97
2022-12-06T22:01:32.154Z,75.50
2022-12-06T22:04:03.922Z,74.70
2022-12-06T22:06:33.085Z,80.70
2022-12-06T22:09:05.532Z,87.42
2022-12-06T22:11:34.292Z,91.50
2022-12-06T22:14:04.644Z,99.22
2022-12-06T22:16:32.546Z,99.75
2022-12-06T22:19:00.585Z,84.30
2022-12-06T22:21:31.506Z,77.65
2022-12-06T22:26:35.109Z,78.45
2022-12-06T22:29:02.817Z,77.05
2022-12-06T22:31:33.837Z,80.22
2022-12-06T22:34:02.947Z,78.30
2022-12-06T22:36:33.270Z,80.38
2022-12-06T22:39:04.118Z,82.02
2022-12-06T22:41:32.994Z,86.95
2022-12-06T22:44:03.587Z,79.65
2022-12-06T22:46:33.279Z,77.32
2022-12-06T22:49:02.078Z,77.17
2022-12-06T22:51:33.747Z,69.27
2022-12-06T22:54:09.271Z,73.33
2022-12-06T22:56:39.965Z,72.55
2022-12-06T22:59:09.078Z,73.92
2022-12-06T23:01:36.528Z,77.60
2022-12-06T23:04:06.526Z,70.95
2022-12-06T23:06:37.434Z,72.45
2022-12-06T23:09:08.320Z,70.65
2022-12-06T23:11:37.007Z,72.15
2022-12-06T23:14:05.147Z,67.58
2022-12-06T23:16:33.249Z,64.80
2022-12-06T23:19:02.890Z,60.60
2022-12-06T23:21:33.811Z,57.95
2022-12-06T23:24:04.989Z,58.30
2022-12-06T23:26:45.289Z,53.87
2022-12-06T23:29:14.594Z,53.68
2022-12-06T23:31:44.880Z,51.98
2022-12-06T23:34:22.725Z,50.80
2022-12-06T23:36:50.669Z,47.10
2022-12-06T23:39:18.776Z,51.23
2022-12-06T23:41:46.664Z,52.70
2022-12-06T23:44:14.406Z,50.50
2022-12-06T23:46:43.656Z,72.82
2022-12-06T23:49:18.595Z,81.22
2022-12-06T23:51:47.167Z,75.50
2022-12-06T23:54:17.027Z,74.60
2022-12-06T23:56:46.167Z,69.00
2022-12-06T23:59:16.371Z,71.15
